Time;durP1;ratioP1;P1;durP2;ratioP2;P2;SDS_P1;SDS_P2;PMS_P1;PMS_P2;Temp;Humidity;BMP_temperature;BMP_pressure;BME280_temperature;BME280_humidity;BME280_pressure;Samples;Min_cycle;Max_cycle;Signal;HPM_P1;HPM_P2
2021/12/08 00:00:43;;;;;;;9.77;5.85;;;;;;;3.72;87.33;99108.44;5042268;28;20135;-63
2021/12/08 00:03:10;;;;;;;12.30;5.57;;;;;;;3.83;87.14;99115.91;5046919;28;20072;-64
2021/12/08 00:05:36;;;;;;;11.02;5.28;;;;;;;3.98;86.61;99139.72;5031271;28;20449;-64
2021/12/08 00:08:03;;;;;;;6.93;4.97;;;;;;;4.03;86.46;99132.59;5026904;28;20104;-62
2021/12/08 00:13:09;;;;;;;7.78;4.85;;;;;;;4.12;86.06;99132.28;5027275;28;20098;-63
2021/12/08 00:15:39;;;;;;;10.30;4.75;;;;;;;4.16;86.07;99127.81;5026843;28;20300;-64
2021/12/08 00:18:07;;;;;;;7.57;4.18;;;;;;;4.16;86.05;99120.00;5027184;28;20053;-63
2021/12/08 00:20:33;;;;;;;9.35;4.18;;;;;;;4.19;86.11;99113.81;5038655;28;20133;-63
2021/12/08 00:23:02;;;;;;;7.15;4.63;;;;;;;4.16;86.20;99094.75;5047269;28;20028;-63
2021/12/08 00:25:28;;;;;;;15.30;5.38;;;;;;;4.13;86.23;99097.47;5029424;28;20040;-63
2021/12/08 00:27:53;;;;;;;9.13;4.32;;;;;;;4.15;86.54;99100.88;5026948;28;20033;-64
2021/12/08 00:30:19;;;;;;;13.02;5.22;;;;;;;4.16;86.67;99102.59;5026885;28;20065;-62
2021/12/08 00:32:45;;;;;;;14.57;6.03;;;;;;;4.15;86.58;99100.88;5027363;28;20025;-64
2021/12/08 00:35:12;;;;;;;13.93;5.65;;;;;;;4.21;86.75;99110.25;5039409;28;20032;-63
2021/12/08 00:37:37;;;;;;;11.07;5.63;;;;;;;4.26;86.56;99104.88;5035294;28;20108;-64
2021/12/08 00:40:05;;;;;;;12.73;6.28;;;;;;;4.23;86.59;99113.66;5008145;28;20116;-64
2021/12/08 00:42:31;;;;;;;14.15;5.70;;;;;;;4.31;86.23;99113.41;5026552;28;20392;-63
2021/12/08 00:44:58;;;;;;;10.10;5.22;;;;;;;4.39;86.15;99108.75;5026952;28;20029;-64
2021/12/08 00:47:24;;;;;;;7.72;4.60;;;;;;;4.46;85.80;99092.88;5026105;28;20025;-65
2021/12/08 00:49:49;;;;;;;7.57;5.25;;;;;;;4.55;85.53;99101.19;5027024;28;20025;-62
2021/12/08 00:52:14;;;;;;;10.18;4.82;;;;;;;4.61;85.29;99112.31;5031306;28;20083;-65
2021/12/08 00:54:41;;;;;;;11.18;5.07;;;;;;;4.65;85.09;99121.72;5025585;28;20077;-63
2021/12/08 00:57:07;;;;;;;6.65;4.03;;;;;;;4.66;85.04;99121.69;5009146;28;20049;-62
2021/12/08 00:59:32;;;;;;;7.97;4.28;;;;;;;4.73;84.89;99122.28;5027274;28;20467;-63
2021/12/08 01:02:02;;;;;;;7.13;5.18;;;;;;;4.83;84.85;99129.78;5025383;28;20025;-63
2021/12/08 01:04:32;;;;;;;7.80;5.05;;;;;;;4.90;84.47;99134.72;5009579;28;20029;-63
2021/12/08 01:06:57;;;;;;;11.77;5.13;;;;;;;4.96;84.31;99138.84;5019767;28;20033;-62
2021/12/08 01:09:22;;;;;;;6.43;5.03;;;;;;;5.03;84.26;99140.31;5025742;28;20079;-63
2021/12/08 01:11:48;;;;;;;11.98;5.10;;;;;;;5.04;84.15;99135.94;5025843;28;20174;-63
2021/12/08 01:14:15;;;;;;;7.97;4.32;;;;;;;5.02;84.26;99133.41;5043948;28;20131;-63
2021/12/08 01:16:41;;;;;;;7.50;4.35;;;;;;;5.01;84.35;99142.16;5046485;28;20052;-62
2021/12/08 01:19:06;;;;;;;8.48;4.80;;;;;;;5.03;84.44;99145.53;5031729;28;20025;-62
2021/12/08 01:21:31;;;;;;;8.90;4.25;;;;;;;5.02;84.15;99149.06;5026360;28;20033;-63
2021/12/08 01:23:57;;;;;;;8.48;4.07;;;;;;;5.06;83.98;99152.41;5024848;28;20037;-64
2021/12/08 01:26:22;;;;;;;10.75;5.00;;;;;;;5.08;84.15;99173.25;5025958;28;20187;-62
2021/12/08 01:28:50;;;;;;;8.35;4.65;;;;;;;5.08;84.03;99174.06;5016713;28;20033;-62
2021/12/08 01:31:15;;;;;;;10.05;5.15;;;;;;;5.11;83.93;99178.31;5025961;28;20262;-65
2021/12/08 01:33:40;;;;;;;7.45;4.50;;;;;;;5.13;83.79;99182.59;5025780;28;20515;-62
2021/12/08 01:36:06;;;;;;;13.75;4.57;;;;;;;5.14;83.82;99181.69;5026420;28;20392;-62
2021/12/08 01:38:32;;;;;;;6.53;4.22;;;;;;;5.15;83.88;99180.75;5025755;28;20528;-63
2021/12/08 01:40:57;;;;;;;8.38;4.22;;;;;;;5.15;83.91;99185.16;5024375;28;20124;-63
2021/12/08 01:43:25;;;;;;;7.50;4.32;;;;;;;5.15;83.61;99178.16;5012430;28;20138;-63
2021/12/08 01:46:05;;;;;;;8.70;4.53;;;;;;;5.18;83.76;99175.44;5005373;28;20480;-63
2021/12/08 01:48:33;;;;;;;7.82;4.18;;;;;;;5.21;83.40;99164.00;5006091;28;20033;-63
2021/12/08 01:51:02;;;;;;;9.98;4.53;;;;;;;5.20;83.42;99175.38;5026471;28;20048;-63
2021/12/08 01:53:28;;;;;;;13.43;5.00;;;;;;;5.22;83.31;99170.09;5027057;28;20025;-63
2021/12/08 01:55:53;;;;;;;10.02;4.65;;;;;;;5.29;82.80;99180.25;5036074;28;20086;-63
2021/12/08 01:58:19;;;;;;;10.63;4.47;;;;;;;5.28;82.99;99185.53;5025954;28;20053;-62
2021/12/08 02:00:54;;;;;;;14.57;5.65;;;;;;;5.27;83.18;99194.28;5027267;28;20388;-65
2021/12/08 02:03:21;;;;;;;15.80;4.85;;;;;;;5.29;83.15;99193.31;5008057;28;20029;-63
2021/12/08 02:05:46;;;;;;;13.18;4.78;;;;;;;5.30;83.22;99189.78;5008095;28;20083;-63
2021/12/08 02:08:11;;;;;;;19.40;6.15;;;;;;;5.29;83.32;99197.66;5045138;28;20395;-65
2021/12/08 02:10:38;;;;;;;10.73;5.10;;;;;;;5.28;83.43;99196.84;5028247;28;20061;-63
2021/12/08 02:13:04;;;;;;;13.85;5.70;;;;;;;5.31;83.23;99194.09;5014081;28;20036;-63
2021/12/08 02:15:30;;;;;;;11.35;5.10;;;;;;;5.30;82.90;99199.38;5014086;28;20025;-64
2021/12/08 02:17:57;;;;;;;14.20;5.10;;;;;;;5.34;83.03;99200.97;5038736;28;20479;-64
2021/12/08 02:20:25;;;;;;;15.48;5.78;;;;;;;5.37;82.87;99210.44;5030637;28;20049;-63
2021/12/08 02:22:50;;;;;;;16.48;4.95;;;;;;;5.36;82.75;99208.75;5024762;28;20044;-65
2021/12/08 02:25:18;;;;;;;17.45;5.38;;;;;;;5.31;82.97;99211.53;5006143;28;20125;-64
2021/12/08 02:27:44;;;;;;;22.85;5.35;;;;;;;5.33;82.93;99206.25;4994694;28;20044;-64
2021/12/08 02:30:29;;;;;;;15.80;4.75;;;;;;;5.34;82.62;99211.41;5025401;28;20029;-64
2021/12/08 02:49:22;;;;;;;18.98;5.53;;;;;;;5.26;82.54;99203.00;4964405;28;20404;-62
2021/12/08 02:51:48;;;;;;;18.00;4.75;;;;;;;5.24;82.45;99200.44;5004348;28;20026;-63
2021/12/08 02:54:14;;;;;;;23.98;4.72;;;;;;;5.21;82.31;99203.19;5033568;28;20174;-63
2021/12/08 02:56:39;;;;;;;17.17;4.10;;;;;;;5.22;81.67;99204.03;5044147;28;20107;-62
2021/12/08 02:59:06;;;;;;;21.35;4.57;;;;;;;5.21;81.30;99216.22;5025746;28;20117;-63
2021/12/08 03:01:31;;;;;;;10.75;3.92;;;;;;;5.20;81.05;99209.31;5026611;28;20025;-62
2021/12/08 03:03:57;;;;;;;14.40;3.13;;;;;;;5.19;80.53;99218.06;5034225;28;20029;-64
2021/12/08 03:06:23;;;;;;;7.07;2.95;;;;;;;5.18;79.91;99225.03;5024931;28;20021;-63
2021/12/08 03:08:48;;;;;;;10.93;2.67;;;;;;;5.18;79.82;99226.81;5025753;28;20431;-62
2021/12/08 03:11:14;;;;;;;6.78;2.67;;;;;;;5.22;79.86;99228.41;5036240;28;20374;-62
2021/12/08 03:13:42;;;;;;;11.48;2.67;;;;;;;5.19;80.05;99225.91;5016627;28;20040;-62
2021/12/08 03:16:09;;;;;;;8.90;2.30;;;;;;;5.24;79.02;99239.63;4993702;28;20029;-63
2021/12/08 03:18:38;;;;;;;9.55;2.38;;;;;;;5.25;79.11;99230.91;5014036;28;20306;-67
2021/12/08 03:21:05;;;;;;;7.05;1.80;;;;;;;5.27;78.73;99230.84;5044135;28;20059;-63
2021/12/08 03:23:33;;;;;;;4.75;2.00;;;;;;;5.25;78.83;99219.59;5026345;28;20035;-62
2021/12/08 03:26:01;;;;;;;8.50;2.28;;;;;;;5.19;78.78;99212.84;5023943;28;20037;-62
2021/12/08 03:28:31;;;;;;;8.25;1.85;;;;;;;5.13;79.13;99218.28;5020829;28;20033;-63
2021/12/08 03:31:10;;;;;;;3.05;1.75;;;;;;;5.07;79.23;99219.38;5022314;28;20026;-62
2021/12/08 03:33:36;;;;;;;10.52;2.47;;;;;;;5.05;79.41;99226.41;5022720;28;20039;-63
2021/12/08 03:36:05;;;;;;;6.53;1.80;;;;;;;4.97;79.98;99231.91;5016908;28;20034;-63
2021/12/08 03:38:31;;;;;;;6.55;2.17;;;;;;;4.93;80.04;99228.56;5023188;28;20017;-62
2021/12/08 03:40:58;;;;;;;6.28;1.70;;;;;;;4.89;80.07;99226.13;5036018;28;20430;-62
2021/12/08 03:43:23;;;;;;;11.80;2.42;;;;;;;4.82;80.59;99222.03;5030374;28;20155;-63
2021/12/08 03:45:50;;;;;;;9.98;2.67;;;;;;;4.77;80.84;99228.28;5023415;28;20120;-63
2021/12/08 03:48:48;;;;;;;15.45;2.90;;;;;;;4.70;80.89;99232.03;5023424;28;20029;-62
2021/12/08 03:51:18;;;;;;;10.85;3.42;;;;;;;4.70;80.56;99242.47;5003661;28;20548;-62
2021/12/08 03:53:44;;;;;;;12.23;2.50;;;;;;;4.66;80.44;99246.06;5005144;28;20102;-63
2021/12/08 03:56:09;;;;;;;8.60;2.17;;;;;;;4.63;80.32;99267.03;5023709;28;20026;-62
2021/12/08 03:58:35;;;;;;;10.10;2.60;;;;;;;4.60;80.37;99280.22;5022738;28;20026;-63
2021/12/08 04:01:01;;;;;;;11.38;2.25;;;;;;;4.53;80.35;99271.72;5004635;28;20026;-63
2021/12/08 04:03:29;;;;;;;12.85;2.28;;;;;;;4.44;80.63;99272.91;5003712;28;20109;-63
2021/12/08 04:05:58;;;;;;;12.10;2.67;;;;;;;4.39;80.56;99269.56;5021585;28;20034;-61
2021/12/08 04:08:45;;;;;;;14.37;2.57;;;;;;;4.35;80.65;99275.81;5022715;28;20041;-63
2021/12/08 04:11:11;;;;;;;11.10;2.25;;;;;;;4.32;80.64;99275.91;5022145;28;20675;-62
2021/12/08 04:13:40;;;;;;;8.85;2.47;;;;;;;4.30;80.66;99271.59;5021988;28;20010;-62
2021/12/08 04:16:07;;;;;;;10.43;2.43;;;;;;;4.30;80.36;99255.94;5015336;28;20061;-64
2021/12/08 04:18:33;;;;;;;11.70;2.50;;;;;;;4.23;80.44;99262.28;5023737;28;20268;-63
2021/12/08 04:20:59;;;;;;;16.23;3.03;;;;;;;4.20;80.38;99264.97;5023473;28;20029;-63
2021/12/08 04:23:27;;;;;;;15.35;3.47;;;;;;;4.15;80.65;99261.66;5005446;28;20030;-64
2021/12/08 04:25:56;;;;;;;16.27;3.10;;;;;;;4.12;80.59;99256.56;5022910;28;20045;-64
2021/12/08 04:28:26;;;;;;;14.70;3.15;;;;;;;4.08;80.61;99261.03;5005773;28;20084;-63
2021/12/08 04:31:06;;;;;;;19.30;3.13;;;;;;;4.08;80.26;99271.44;5003539;28;20018;-62
2021/12/08 04:33:34;;;;;;;14.55;3.17;;;;;;;4.08;80.09;99275.81;5021185;28;20484;-63
2021/12/08 04:36:00;;;;;;;19.00;4.65;;;;;;;4.02;80.20;99279.47;5023016;28;20352;-64
2021/12/08 04:38:36;;;;;;;13.50;3.55;;;;;;;4.07;79.72;99271.50;5022182;28;20523;-62
2021/12/08 04:41:07;;;;;;;18.40;3.13;;;;;;;4.08;79.71;99288.84;5022975;28;20507;-62
2021/12/08 04:43:47;;;;;;;12.55;2.97;;;;;;;4.06;79.59;99294.09;5007663;28;20034;-62
2021/12/08 05:00:30;;;;;;;15.73;3.55;;;;;;;3.83;80.13;99281.81;5007348;28;20073;-63
2021/12/08 05:06:00;;;;;;;11.18;2.35;;;;;;;3.69;80.31;99274.41;5010379;28;20099;-64
2021/12/08 05:08:24;;;;;;;10.25;2.30;;;;;;;3.67;80.47;99284.88;5024900;28;20545;-64
2021/12/08 05:10:51;;;;;;;7.10;2.22;;;;;;;3.66;80.30;99301.41;5026779;28;20132;-64
2021/12/08 05:13:18;;;;;;;5.60;1.90;;;;;;;3.61;80.54;99306.75;5025015;28;20049;-63
2021/12/08 05:15:55;;;;;;;9.05;1.67;;;;;;;3.60;80.41;99312.88;5026816;28;20107;-63
2021/12/08 05:18:31;;;;;;;7.40;1.70;;;;;;;3.61;80.16;99316.34;5024639;28;20022;-64
2021/12/08 05:21:04;;;;;;;9.73;1.52;;;;;;;3.58;80.07;99322.47;5007012;28;20029;-62
2021/12/08 05:23:35;;;;;;;7.47;1.70;;;;;;;3.62;79.78;99316.28;5005880;28;20388;-64
2021/12/08 05:26:07;;;;;;;11.40;2.20;;;;;;;3.60;79.70;99310.25;5023141;28;20499;-63
2021/12/08 05:28:32;;;;;;;7.15;1.83;;;;;;;3.63;79.63;99314.53;5026891;28;20017;-65
2021/12/08 05:31:05;;;;;;;10.43;1.90;;;;;;;3.62;79.24;99316.28;5026363;28;20028;-64
2021/12/08 05:33:31;;;;;;;4.43;1.40;;;;;;;3.63;79.26;99320.59;5026651;28;20052;-64
2021/12/08 05:35:57;;;;;;;7.95;1.67;;;;;;;3.59;79.08;99315.50;5019939;28;20427;-65
2021/12/08 05:38:23;;;;;;;8.13;1.90;;;;;;;3.60;78.86;99325.03;5026141;28;20661;-63
2021/12/08 05:40:56;;;;;;;8.18;1.42;;;;;;;3.57;78.93;99330.31;5008644;28;20033;-65
2021/12/08 05:43:22;;;;;;;9.75;1.70;;;;;;;3.54;78.82;99334.75;5026548;28;20029;-65
2021/12/08 05:45:48;;;;;;;13.75;1.85;;;;;;;3.53;78.74;99330.41;5026540;28;20488;-65
2021/12/08 05:48:14;;;;;;;6.93;1.92;;;;;;;3.50;78.73;99327.06;5008581;28;20032;-65
2021/12/08 05:50:45;;;;;;;10.07;2.00;;;;;;;3.50;78.68;99337.47;5027016;28;20045;-64
2021/12/08 05:53:11;;;;;;;5.65;1.85;;;;;;;3.46;78.82;99334.09;5026174;28;20100;-65
2021/12/08 05:55:38;;;;;;;10.68;1.92;;;;;;;3.45;78.74;99337.59;5025621;28;20121;-64
2021/12/08 05:58:05;;;;;;;6.28;1.77;;;;;;;3.54;78.23;99341.69;5007043;28;20049;-65
2021/12/08 06:00:38;;;;;;;12.20;1.80;;;;;;;3.57;78.04;99344.22;5026175;28;20030;-64
2021/12/08 06:03:03;;;;;;;10.40;1.80;;;;;;;3.59;77.97;99352.84;5024127;28;20044;-64
2021/12/08 06:05:29;;;;;;;9.70;2.03;;;;;;;3.60;78.19;99353.69;5025658;28;20033;-65
2021/12/08 06:07:55;;;;;;;14.43;2.30;;;;;;;3.56;78.11;99342.50;5025191;28;20067;-62
2021/12/08 06:10:29;;;;;;;12.68;1.92;;;;;;;3.59;77.96;99354.59;5025379;28;20071;-64
2021/12/08 06:12:55;;;;;;;10.70;2.25;;;;;;;3.61;77.58;99345.00;5019483;28;20026;-64
2021/12/08 06:15:21;;;;;;;6.70;1.60;;;;;;;3.60;77.75;99344.13;5019044;28;20021;-64
2021/12/08 06:17:48;;;;;;;7.80;1.73;;;;;;;3.62;77.28;99357.09;5025073;28;20053;-65
2021/12/08 06:20:17;;;;;;;11.85;1.88;;;;;;;3.61;77.54;99365.81;5025624;28;20080;-65
2021/12/08 06:22:44;;;;;;;12.57;2.17;;;;;;;3.54;78.03;99367.75;5025511;28;20053;-63
2021/12/08 06:25:11;;;;;;;16.15;2.25;;;;;;;3.58;77.67;99376.34;5025801;28;20419;-63
2021/12/08 06:27:37;;;;;;;10.02;1.73;;;;;;;3.52;77.92;99383.41;5025275;28;20026;-67
2021/12/08 06:30:05;;;;;;;11.90;2.75;;;;;;;3.50;77.91;99398.25;5024595;28;20029;-67
2021/12/08 06:32:30;;;;;;;13.68;2.08;;;;;;;3.44;78.43;99400.16;5014940;28;20022;-68
2021/12/08 06:34:57;;;;;;;7.57;1.85;;;;;;;3.44;78.35;99392.34;5012013;28;20442;-68
2021/12/08 06:37:33;;;;;;;12.45;3.25;;;;;;;3.51;78.22;99392.13;5023481;28;20036;-68
2021/12/08 06:40:04;;;;;;;9.20;2.28;;;;;;;3.60;77.91;99393.63;5022963;28;20032;-70
2021/12/08 06:42:34;;;;;;;15.38;2.30;;;;;;;3.74;77.47;99387.16;5024033;28;20041;-70
2021/12/08 06:45:00;;;;;;;9.70;2.00;;;;;;;3.81;77.12;99393.03;5005463;28;20030;-70
2021/12/08 06:47:29;;;;;;;9.85;2.08;;;;;;;3.75;77.28;99387.13;5024220;28;20124;-69
2021/12/08 06:49:59;;;;;;;13.35;1.92;;;;;;;3.72;77.66;99397.63;5023564;28;20542;-70
2021/12/08 06:52:29;;;;;;;18.63;2.22;;;;;;;3.70;77.19;99391.59;5004526;28;20148;-66
2021/12/08 06:55:06;;;;;;;5.82;1.95;;;;;;;3.68;77.35;99401.22;5023438;28;20025;-63
2021/12/08 06:57:36;;;;;;;15.80;2.00;;;;;;;3.65;77.75;99415.16;5023636;28;20036;-63
2021/12/08 07:00:24;;;;;;;6.85;2.03;;;;;;;3.63;77.67;99408.28;5021847;28;20029;-66
2021/12/08 07:03:04;;;;;;;9.38;1.95;;;;;;;3.61;77.47;99410.94;5019914;28;20017;-68
2021/12/08 07:06:02;;;;;;;9.80;1.88;;;;;;;3.60;77.64;99410.97;5021160;28;20420;-68
2021/12/08 07:08:18;;;;;;;8.00;2.35;;;;;;;3.59;77.50;99417.09;5002747;28;20718;-67
2021/12/08 07:10:46;;;;;;;12.48;2.55;;;;;;;3.58;77.49;99424.06;4999515;28;20080;-65
2021/12/08 07:13:15;;;;;;;15.95;2.25;;;;;;;3.56;77.55;99428.47;5024359;28;20028;-68
2021/12/08 07:15:51;;;;;;;8.68;2.03;;;;;;;3.56;77.62;99438.88;5022082;28;20033;-68
2021/12/08 07:18:25;;;;;;;18.10;3.00;;;;;;;3.58;77.31;99425.81;5018337;28;20091;-68
2021/12/08 07:20:56;;;;;;;8.88;2.15;;;;;;;3.60;77.07;99429.22;5013567;28;20416;-69
2021/12/08 07:23:27;;;;;;;14.95;2.70;;;;;;;3.56;77.41;99419.78;5010648;28;20387;-66
2021/12/08 07:25:54;;;;;;;14.95;2.47;;;;;;;3.60;76.90;99421.41;5000414;28;20017;-66
2021/12/08 07:28:22;;;;;;;10.38;2.33;;;;;;;3.62;76.98;99428.31;5003269;28;20025;-66
2021/12/08 07:31:02;;;;;;;17.10;2.60;;;;;;;3.63;77.16;99432.59;5013578;28;20049;-69
2021/12/08 07:33:28;;;;;;;12.07;2.42;;;;;;;3.59;77.15;99438.81;5014013;28;20024;-67
2021/12/08 07:35:57;;;;;;;9.60;2.25;;;;;;;3.60;77.38;99440.50;5013271;28;20021;-65
2021/12/08 07:38:25;;;;;;;7.30;2.37;;;;;;;3.59;77.28;99445.75;5011968;28;20060;-69
2021/12/08 07:41:22;;;;;;;13.98;2.45;;;;;;;3.58;77.12;99444.88;5012905;28;20751;-66
2021/12/08 07:43:51;;;;;;;8.45;2.50;;;;;;;3.58;77.25;99455.31;5006905;28;20597;-69
2021/12/08 07:46:29;;;;;;;8.70;2.10;;;;;;;3.62;77.21;99445.66;5011997;28;20068;-67
2021/12/08 07:49:01;;;;;;;10.10;2.22;;;;;;;3.61;77.01;99457.00;5013508;28;20057;-68
2021/12/08 07:51:39;;;;;;;14.52;2.65;;;;;;;3.58;77.14;99454.47;5011755;28;20411;-67
2021/12/08 07:54:07;;;;;;;12.20;2.78;;;;;;;3.59;77.03;99456.19;4993861;28;20635;-66
2021/12/08 07:56:36;;;;;;;9.57;2.58;;;;;;;3.55;77.22;99447.56;5006147;28;20093;-67
2021/12/08 07:59:05;;;;;;;9.77;2.25;;;;;;;3.50;77.19;99436.44;5019265;28;20168;-64
2021/12/08 08:01:34;;;;;;;13.30;2.72;;;;;;;3.47;77.60;99432.19;5023091;28;20072;-64
2021/12/08 08:04:00;;;;;;;;;;;;;;;3.45;77.55;99444.38;5023013;28;20492;-65
2021/12/08 08:06:34;;;;;;;14.60;2.63;;;;;;;3.42;77.54;99439.25;5023579;28;19917;-64
2021/12/08 08:09:02;;;;;;;13.70;2.35;;;;;;;3.40;77.76;99441.03;5021445;28;20135;-64
2021/12/08 08:11:35;;;;;;;11.73;2.58;;;;;;;3.39;77.61;99441.94;5023570;28;20040;-64
2021/12/08 08:14:03;;;;;;;10.85;2.22;;;;;;;3.42;77.41;99441.84;5021313;28;20542;-65
2021/12/08 08:16:32;;;;;;;7.80;2.10;;;;;;;3.41;77.48;99443.59;5024083;28;20048;-64
2021/12/08 08:19:06;;;;;;;12.10;2.65;;;;;;;3.45;77.47;99439.16;5002124;28;20078;-64
2021/12/08 08:21:35;;;;;;;10.00;3.00;;;;;;;3.50;77.17;99437.31;5007972;28;20081;-66
2021/12/08 08:24:02;;;;;;;12.32;2.35;;;;;;;3.55;77.15;99442.38;5025644;28;20031;-66
2021/12/08 08:26:29;;;;;;;11.50;2.38;;;;;;;3.62;76.75;99446.53;5027111;28;20115;-65
2021/12/08 08:28:55;;;;;;;16.75;2.10;;;;;;;3.75;76.39;99439.22;5026137;28;20077;-65
2021/12/08 08:31:29;;;;;;;7.22;2.10;;;;;;;3.90;75.92;99447.50;5009439;28;20034;-66
2021/12/08 08:33:55;;;;;;;8.07;2.38;;;;;;;3.98;75.92;99444.66;5025961;28;20568;-68
2021/12/08 08:36:25;;;;;;;12.23;2.17;;;;;;;4.20;75.02;99454.47;5026052;28;20116;-65
2021/12/08 08:38:55;;;;;;;9.75;2.55;;;;;;;4.37;74.47;99464.41;5023596;28;20184;-67
2021/12/08 08:41:38;;;;;;;6.32;2.20;;;;;;;4.52;73.95;99463.91;5026926;28;20109;-64
2021/12/08 08:44:14;;;;;;;9.95;2.60;;;;;;;4.55;73.98;99470.81;5025013;28;20102;-66
2021/12/08 08:46:45;;;;;;;7.72;1.95;;;;;;;4.61;74.08;99467.16;5026195;28;20030;-65
2021/12/08 08:49:13;;;;;;;9.40;1.95;;;;;;;4.61;74.02;99470.59;5026318;28;20052;-65
2021/12/08 08:51:40;;;;;;;11.35;2.25;;;;;;;4.58;73.92;99472.47;5027572;28;20045;-65
2021/12/08 08:54:19;;;;;;;10.48;2.22;;;;;;;4.51;73.80;99462.22;5025401;28;20018;-67
2021/12/08 08:56:49;;;;;;;8.38;1.98;;;;;;;4.45;74.06;99472.81;5026538;28;20350;-67
2021/12/08 08:59:23;;;;;;;10.20;2.08;;;;;;;4.38;74.31;99473.91;5025694;28;20058;-65
2021/12/08 09:01:51;;;;;;;5.32;2.08;;;;;;;4.39;74.50;99470.41;5026586;28;20330;-65
2021/12/08 09:04:18;;;;;;;9.80;2.25;;;;;;;4.42;73.91;99467.69;5026095;28;20076;-64
2021/12/08 09:06:47;;;;;;;10.32;2.40;;;;;;;4.41;73.89;99484.25;5025697;28;20373;-65
2021/12/08 09:09:18;;;;;;;8.82;2.97;;;;;;;4.43;73.66;99485.91;5026658;28;20291;-64
2021/12/08 09:12:20;;;;;;;12.57;2.38;;;;;;;4.45;73.68;99485.88;5025821;28;20060;-66
2021/12/08 09:15:01;;;;;;;12.60;2.15;;;;;;;4.53;73.33;99491.72;5018737;28;20155;-65
2021/12/08 09:17:34;;;;;;;10.52;2.15;;;;;;;4.56;73.31;99495.97;5026013;28;20026;-66
2021/12/08 09:20:35;;;;;;;11.23;2.20;;;;;;;4.62;73.04;99487.97;5026392;28;20022;-64
2021/12/08 09:23:22;;;;;;;10.27;1.90;;;;;;;4.67;72.74;99498.28;5024900;28;20057;-67
2021/12/08 09:25:53;;;;;;;13.52;2.35;;;;;;;4.72;72.67;99493.75;5025234;28;20037;-65
2021/12/08 09:28:29;;;;;;;7.70;1.73;;;;;;;4.78;72.46;99483.13;5025104;28;20171;-65
2021/12/08 09:31:06;;;;;;;6.60;1.95;;;;;;;4.86;72.38;99492.47;5024887;28;20087;-69
2021/12/08 09:33:43;;;;;;;10.20;2.28;;;;;;;4.92;72.32;99494.88;5025247;28;20025;-67
2021/12/08 09:36:13;;;;;;;11.75;2.20;;;;;;;5.00;72.01;99487.63;5025592;28;20117;-65
2021/12/08 09:38:43;;;;;;;13.18;2.60;;;;;;;4.99;72.06;99499.00;5024623;28;20081;-66
2021/12/08 09:41:13;;;;;;;7.82;2.15;;;;;;;4.99;72.11;99493.78;5007757;28;20022;-66
2021/12/08 09:43:44;;;;;;;7.38;2.20;;;;;;;5.01;71.63;99497.19;5025357;28;20087;-66
2021/12/08 09:46:18;;;;;;;6.72;1.88;;;;;;;4.98;71.97;99496.44;5026050;28;20022;-66
2021/12/08 09:48:45;;;;;;;6.65;2.10;;;;;;;4.99;71.73;99500.75;5025553;28;20053;-67
2021/12/08 09:51:12;;;;;;;6.70;2.67;;;;;;;5.08;71.59;99507.44;5025304;28;20490;-65
2021/12/08 09:53:38;;;;;;;13.23;2.63;;;;;;;5.09;71.37;99514.38;5015381;28;20038;-65
2021/12/08 09:56:04;;;;;;;5.90;1.65;;;;;;;5.14;71.45;99521.16;5015562;28;20606;-66
2021/12/08 09:58:30;;;;;;;8.05;2.08;;;;;;;5.39;70.63;99533.38;5006122;28;20032;-67
2021/12/08 10:00:57;;;;;;;8.98;2.42;;;;;;;5.36;70.57;99532.66;5003054;28;20010;-68
2021/12/08 10:03:23;;;;;;;7.55;1.90;;;;;;;5.37;70.42;99543.06;5016431;28;20037;-64
2021/12/08 10:05:50;;;;;;;3.30;1.75;;;;;;;5.44;69.92;99533.22;5012931;28;20025;-69
2021/12/08 10:08:15;;;;;;;6.15;1.77;;;;;;;5.47;70.13;99545.34;5013907;28;20053;-70
2021/12/08 10:10:42;;;;;;;6.75;1.95;;;;;;;5.49;69.85;99553.97;5022670;28;20049;-70
2021/12/08 10:13:08;;;;;;;4.35;1.80;;;;;;;5.44;70.34;99557.63;5023865;28;20076;-66
2021/12/08 10:15:34;;;;;;;4.07;2.67;;;;;;;5.29;70.59;99551.13;5025768;28;20500;-67
2021/12/08 10:18:00;;;;;;;8.77;3.15;;;;;;;5.43;69.93;99557.66;5024423;28;20121;-66
2021/12/08 10:20:25;;;;;;;7.55;2.42;;;;;;;5.60;68.78;99548.41;5024434;28;20052;-65
2021/12/08 10:23:18;;;;;;;8.63;2.90;;;;;;;5.62;68.78;99557.88;5023183;28;20696;-67
2021/12/08 10:25:46;;;;;;;10.23;2.20;;;;;;;5.56;69.17;99545.91;5023372;28;20551;-66
2021/12/08 10:28:21;;;;;;;5.25;2.67;;;;;;;5.62;68.85;99549.19;5023424;28;20029;-67
2021/12/08 10:30:53;;;;;;;6.53;2.47;;;;;;;5.56;68.66;99553.72;5024366;28;20051;-66
2021/12/08 10:36:36;;;;;;;4.90;2.47;;;;;;;5.51;69.25;99539.13;5024790;28;20177;-65
2021/12/08 10:39:07;;;;;;;4.30;2.08;;;;;;;5.50;69.27;99540.00;5023661;28;20217;-65
2021/12/08 10:42:03;;;;;;;7.18;2.47;;;;;;;5.42;69.04;99533.28;5024476;28;20040;-65
2021/12/08 10:45:08;;;;;;;5.30;2.60;;;;;;;5.43;68.79;99560.28;5005544;28;20040;-66
2021/12/08 10:47:47;;;;;;;8.32;2.15;;;;;;;5.59;68.49;99549.28;5023906;28;20037;-65
2021/12/08 10:56:01;;;;;;;6.95;2.33;;;;;;;5.52;68.16;99548.66;5005130;28;20085;-65
2021/12/08 10:58:31;;;;;;;6.53;2.15;;;;;;;5.41;69.18;99543.78;5004096;28;20496;-66
2021/12/08 11:01:09;;;;;;;8.25;2.30;;;;;;;5.54;68.45;99552.91;5004351;28;20037;-67
2021/12/08 11:03:36;;;;;;;4.95;2.10;;;;;;;5.59;68.99;99550.16;4999369;28;20567;-67
2021/12/08 11:06:04;;;;;;;9.65;2.45;;;;;;;5.57;69.03;99549.38;4990735;28;20124;-68
2021/12/08 11:08:36;;;;;;;6.93;2.35;;;;;;;5.53;69.08;99550.34;4991195;28;20049;-67
2021/12/08 11:11:05;;;;;;;4.72;2.20;;;;;;;5.47;68.71;99550.56;4978286;28;20026;-65
2021/12/08 11:13:36;;;;;;;8.82;2.53;;;;;;;5.30;69.62;99549.38;5011643;28;20022;-67
2021/12/08 11:16:12;;;;;;;6.57;2.25;;;;;;;5.27;69.65;99557.31;5007268;28;20158;-67
2021/12/08 11:18:43;;;;;;;5.45;1.98;;;;;;;5.24;69.78;99550.41;5004574;28;20534;-66
2021/12/08 11:21:21;;;;;;;6.68;2.90;;;;;;;5.29;69.89;99547.66;5010342;28;20050;-68
2021/12/08 11:23:49;;;;;;;4.75;2.35;;;;;;;5.30;69.82;99550.22;5001904;28;20036;-66
2021/12/08 11:26:37;;;;;;;7.03;2.70;;;;;;;5.41;69.89;99554.22;4993993;28;20026;-64
2021/12/08 11:29:04;;;;;;;4.53;2.47;;;;;;;5.46;69.40;99543.63;5000930;28;20038;-66
2021/12/08 11:31:41;;;;;;;7.32;2.38;;;;;;;5.54;68.88;99560.75;5011681;28;20037;-67
2021/12/08 11:34:14;;;;;;;9.43;2.63;;;;;;;5.62;68.94;99549.19;5006437;28;20512;-67
2021/12/08 11:36:40;;;;;;;8.02;3.13;;;;;;;5.65;68.83;99549.09;4992545;28;20033;-64
2021/12/08 11:39:12;;;;;;;5.43;2.80;;;;;;;5.74;68.16;99564.47;4981927;28;20029;-65
2021/12/08 11:41:41;;;;;;;11.02;3.38;;;;;;;5.60;69.37;99566.69;4996814;28;20124;-66
2021/12/08 11:44:10;;;;;;;6.72;3.28;;;;;;;5.66;69.65;99575.16;4997765;28;20112;-67
2021/12/08 11:46:52;;;;;;;10.10;3.90;;;;;;;5.77;68.45;99584.41;4997086;28;20034;-67
2021/12/08 11:49:18;;;;;;;14.85;3.65;;;;;;;5.94;68.16;99586.44;4997195;28;20132;-66
2021/12/08 11:51:44;;;;;;;11.18;3.00;;;;;;;6.40;66.75;99572.66;4999461;28;20982;-66
2021/12/08 11:54:36;;;;;;;8.00;3.00;;;;;;;6.56;66.75;99575.53;5000956;28;20029;-67
2021/12/08 11:57:10;;;;;;;7.60;3.05;;;;;;;6.74;65.61;99575.78;5002972;28;20510;-65
2021/12/08 11:59:54;;;;;;;10.80;2.78;;;;;;;6.93;64.57;99574.13;5002538;28;20025;-66
2021/12/08 12:02:22;;;;;;;9.30;2.97;;;;;;;7.79;62.10;99557.56;5011919;28;20025;-67
2021/12/08 12:04:48;;;;;;;7.28;2.80;;;;;;;8.51;59.50;99570.19;4988980;28;20041;-65
2021/12/08 12:07:14;;;;;;;9.23;2.72;;;;;;;8.79;58.76;99562.84;5009415;28;20514;-66
2021/12/08 12:09:41;;;;;;;5.70;2.55;;;;;;;9.38;56.82;99564.41;5015223;28;20045;-65
2021/12/08 12:12:07;;;;;;;3.58;2.30;;;;;;;9.14;57.29;99569.94;4992711;28;20026;-63
2021/12/08 12:14:32;;;;;;;6.82;2.28;;;;;;;9.48;56.67;99566.53;5013303;28;20036;-65
2021/12/08 12:16:57;;;;;;;6.72;2.70;;;;;;;9.81;55.35;99578.03;5001018;28;20104;-63
2021/12/08 12:19:24;;;;;;;10.82;2.65;;;;;;;9.73;55.34;99575.78;4995901;28;20604;-65
2021/12/08 12:22:19;;;;;;;6.50;2.70;;;;;;;9.73;55.16;99578.44;4984419;28;20025;-64
2021/12/08 12:25:32;;;;;;;6.25;2.55;;;;;;;10.07;53.95;99560.06;4976119;28;20392;-65
2021/12/08 12:28:22;;;;;;;8.50;3.00;;;;;;;9.99;54.14;99573.63;4968807;28;20038;-65
2021/12/08 12:31:19;;;;;;;11.70;2.88;;;;;;;9.95;54.25;99577.34;5009113;28;20121;-66
2021/12/08 12:33:46;;;;;;;9.90;3.13;;;;;;;9.94;54.09;99569.53;4990681;28;20384;-64
2021/12/08 12:36:27;;;;;;;11.43;2.97;;;;;;;9.66;54.94;99586.72;5018648;28;20037;-63
2021/12/08 12:39:12;;;;;;;11.18;3.10;;;;;;;9.08;56.71;99594.75;5026918;28;20052;-63